Chincoteague, Virginia
Current Conditions -  °F | °C
As of 3:54 PM on Thursday 27 Nov 2014 (Local Time) from KWAL Reporting Station
Overcast Overcast  
Wind Chill: 36°   Ceiling: 3700
Heat Index: 41°   Visibility: 10mi
Dew Point: 35°   Wind: 7mph
Humidity: 79%   Direction: 340°NNW
Pressure: 30.05"   Gusts: NA
Location:  37.862°N, 75.4636°W
Report Text: KWAL 272054Z AUTO 34006KT 10SM OVC037 05/02 A3005 RMK AO2 RAE23 SLP171 P0000 60001 T00500017 53009
Loading
Personal Weather Stations






























Interactive Weather Map New forecast layout! Learn more

10-Day Weather Forecast

Advertisements
Track Severe Weather on mobile